This is the latest recevied weather packets stored in our database for station/object IN3MWE-10. If no packets are shown the sender has not sent any weather packets the latest 10 day(s).
| Time | Temp. | Humidity | Pressure | Rain* | Wind** | Luminosity | Snow |
|---|---|---|---|---|---|---|---|
| 1787883627 | 22.22° C | 100% | 982 hPa | - | - | - | - |
| 1787882727 | 21.67° C | 100% | 982 hPa | - | - | - | - |
| 1787881826 | 22.22° C | 100% | 982.5 hPa | - | - | - | - |
| 1787880926 | 22.22° C | 99% | 982.3 hPa | - | - | - | - |
| 1787880026 | 22.22° C | 100% | 982.2 hPa | - | - | - | - |
| 1787879126 | 21.67° C | 100% | 982.5 hPa | - | - | - | - |
| 1787878226 | 22.22° C | 100% | 982.7 hPa | - | - | - | - |
| 1787877326 | 22.78° C | 100% | 982.4 hPa | - | - | - | - |
| 1787876426 | 22.78° C | 99% | 982.5 hPa | - | - | - | - |
| 1787875525 | 22.78° C | 97% | 982.5 hPa | - | - | - | - |
| 1787874625 | 22.78° C | 96% | 982.7 hPa | - | - | - | - |
| 1787873725 | 23.33° C | 96% | 982.7 hPa | - | - | - | - |
| 1787872825 | 23.33° C | 95% | 982.8 hPa | - | - | - | - |
| 1787871925 | 23.33° C | 96% | 982.7 hPa | - | - | - | - |
| 1787871025 | 23.33° C | 95% | 982.6 hPa | - | - | - | - |
| 1787870125 | 23.33° C | 94% | 982.6 hPa | - | - | - | - |
| 1787869224 | 23.89° C | 88% | 982.4 hPa | - | - | - | - |
| 1787868324 | 24.44° C | 86% | 982.2 hPa | - | - | - | - |
| 1787867424 | 23.89° C | 89% | 982.4 hPa | - | - | - | - |
| 1787866524 | 23.89° C | 89% | 982.4 hPa | - | - | - | - |
| 1787865624 | 24.44° C | 87% | 982.5 hPa | - | - | - | - |
| 1787864724 | 24.44° C | 89% | 982.6 hPa | - | - | - | - |
| 1787863824 | 24.44° C | 87% | 982.5 hPa | - | - | - | - |
| 1787862924 | 25° C | 84% | 982.4 hPa | - | - | - | - |
| 1787862023 | 24.44° C | 87% | 982.4 hPa | - | - | - | - |
* Rain since midnight (hover to see other rain measurements)
** Current wind speed in m/s (hover to see current wind gust speed)